createdAt,value
2023-04-18T00:01:39.687Z,99807.83
2023-04-18T00:04:09.659Z,99806.89
2023-04-18T00:06:37.886Z,99803.09
2023-04-18T00:09:06.310Z,99802.70
2023-04-18T00:11:35.029Z,99798.51
2023-04-18T00:14:03.502Z,99795.27
2023-04-18T00:16:33.277Z,99799.67
2023-04-18T00:19:02.389Z,99801.52
2023-04-18T00:21:31.897Z,99802.92
2023-04-18T00:23:59.887Z,99809.59
2023-04-18T00:26:28.231Z,99809.48
2023-04-18T00:28:57.342Z,99810.44
2023-04-18T00:31:25.545Z,99812.23
2023-04-18T00:33:53.653Z,99816.10
2023-04-18T00:36:24.957Z,99814.50
2023-04-18T00:38:53.094Z,99818.27
2023-04-18T00:41:22.226Z,99818.90
2023-04-18T00:43:50.415Z,99819.81
2023-04-18T00:46:18.459Z,99820.99
2023-04-18T00:48:47.723Z,99819.20
2023-04-18T00:51:15.760Z,99819.17
2023-04-18T00:53:45.573Z,99817.97
2023-04-18T00:56:14.592Z,99818.66
2023-04-18T00:58:42.506Z,99816.95
2023-04-18T01:01:10.904Z,99815.34
2023-04-18T01:03:39.863Z,99816.66
2023-04-18T01:06:08.278Z,99814.14
2023-04-18T01:08:37.391Z,99816.65
2023-04-18T01:11:06.242Z,99814.96
2023-04-18T01:13:34.276Z,99815.08
2023-04-18T01:16:04.439Z,99813.57
2023-04-18T01:18:32.568Z,99815.41
2023-04-18T01:21:00.800Z,99813.29
2023-04-18T01:23:28.719Z,99813.86
2023-04-18T01:25:57.003Z,99815.42
2023-04-18T01:28:27.900Z,99815.54
2023-04-18T01:30:57.272Z,99815.80
2023-04-18T01:33:25.526Z,99813.45
2023-04-18T01:35:53.456Z,99813.35
2023-04-18T01:38:21.446Z,99808.70
2023-04-18T01:40:49.758Z,99811.52
2023-04-18T01:43:17.685Z,99810.56
2023-04-18T01:45:45.621Z,99806.36
2023-04-18T01:48:13.524Z,99809.02
2023-04-18T01:50:43.074Z,99814.39
2023-04-18T01:53:11.845Z,99818.64
2023-04-18T01:55:39.723Z,99821.52
2023-04-18T01:58:08.655Z,99819.48
2023-04-18T02:00:37.497Z,99817.97
2023-04-18T02:03:06.693Z,99818.95
2023-04-18T02:05:37.650Z,99821.34
2023-04-18T02:08:08.401Z,99823.81
2023-04-18T02:10:38.931Z,99826.33
2023-04-18T02:13:06.935Z,99825.52
2023-04-18T02:15:35.619Z,99828.66
2023-04-18T02:18:03.793Z,99828.77
2023-04-18T02:20:31.813Z,99826.85
2023-04-18T02:23:03.544Z,99831.25
2023-04-18T02:25:31.974Z,99829.58
2023-04-18T02:27:59.978Z,99833.89
2023-04-18T02:30:27.952Z,99835.09
2023-04-18T02:32:58.983Z,99838.71
2023-04-18T02:35:27.697Z,99836.95
2023-04-18T02:37:55.786Z,99838.92
2023-04-18T02:40:23.669Z,99842.48
2023-04-18T02:42:51.863Z,99843.04
2023-04-18T02:45:19.779Z,99844.59
2023-04-18T02:47:55.118Z,99843.60
2023-04-18T02:50:25.314Z,99847.60
2023-04-18T02:52:54.951Z,99849.66
2023-04-18T02:55:24.515Z,99849.20
2023-04-18T02:57:53.509Z,99849.11
2023-04-18T03:00:44.372Z,99848.58
2023-04-18T03:03:35.409Z,99845.97
2023-04-18T03:06:27.363Z,99847.36
2023-04-18T03:08:55.984Z,99847.73
2023-04-18T03:11:25.083Z,99848.74
2023-04-18T03:13:53.908Z,99846.23
2023-04-18T03:16:22.669Z,99850.70
2023-04-18T03:18:50.898Z,99851.02
2023-04-18T03:21:19.597Z,99856.34
2023-04-18T03:23:47.691Z,99854.15
2023-04-18T03:26:16.155Z,99850.40
2023-04-18T03:28:45.556Z,99850.56
2023-04-18T03:31:13.611Z,99850.89
2023-04-18T03:33:44.348Z,99854.79
2023-04-18T03:36:17.339Z,99852.30
2023-04-18T03:38:45.546Z,99854.90
2023-04-18T03:41:13.784Z,99857.89
2023-04-18T03:43:42.794Z,99862.31
2023-04-18T03:46:10.777Z,99867.47
2023-04-18T03:48:39.298Z,99872.60
2023-04-18T03:51:09.916Z,99877.80
2023-04-18T03:53:38.280Z,99881.86
2023-04-18T03:56:07.172Z,99883.95
2023-04-18T03:59:00.964Z,99884.71
2023-04-18T04:01:29.373Z,99886.35
2023-04-18T04:03:57.577Z,99883.63
2023-04-18T04:06:26.515Z,99884.79
2023-04-18T04:08:56.131Z,99883.73
2023-04-18T04:11:26.229Z,99886.50
2023-04-18T04:13:54.111Z,99883.31
2023-04-18T04:16:25.024Z,99886.25
2023-04-18T04:18:53.575Z,99890.43
2023-04-18T04:21:24.420Z,99896.46
2023-04-18T04:23:54.195Z,99898.98
2023-04-18T04:26:27.937Z,99902.69
2023-04-18T04:29:03.793Z,99905.30
2023-04-18T04:31:33.078Z,99907.20
2023-04-18T04:34:01.701Z,99909.95
2023-04-18T04:36:29.963Z,99912.99
2023-04-18T04:38:59.812Z,99914.83
2023-04-18T04:41:37.676Z,99916.44
2023-04-18T04:44:07.027Z,99913.61
2023-04-18T04:46:39.580Z,99916.06
2023-04-18T04:49:14.336Z,99917.24
2023-04-18T04:51:44.362Z,99920.80
2023-04-18T04:54:12.942Z,99923.21
2023-04-18T04:56:41.612Z,99924.52
2023-04-18T04:59:09.758Z,99923.49
2023-04-18T05:01:41.757Z,99923.38
2023-04-18T05:04:09.883Z,99929.13
2023-04-18T05:06:40.160Z,99929.48
2023-04-18T05:09:08.418Z,99931.64
2023-04-18T05:11:36.671Z,99936.34
2023-04-18T05:14:04.687Z,99935.10
2023-04-18T05:16:33.027Z,99927.95
2023-04-18T05:19:01.059Z,99926.45
2023-04-18T05:21:29.551Z,99926.34
2023-04-18T05:23:57.482Z,99928.83
2023-04-18T05:26:25.628Z,99933.27
2023-04-18T05:28:53.595Z,99937.80
2023-04-18T05:31:21.712Z,99941.27
2023-04-18T05:33:49.804Z,99941.33
2023-04-18T05:36:17.745Z,99944.11
2023-04-18T05:38:45.660Z,99942.70
2023-04-18T05:41:13.733Z,99942.41
2023-04-18T05:43:43.025Z,99941.86
2023-04-18T05:46:14.582Z,99942.90
2023-04-18T05:48:42.587Z,99942.30
2023-04-18T05:51:11.633Z,99939.12
2023-04-18T05:53:39.754Z,99941.05
2023-04-18T05:56:07.789Z,99940.48
2023-04-18T05:58:35.744Z,99943.89
2023-04-18T06:01:03.743Z,99948.83
2023-04-18T06:03:31.790Z,99952.39
2023-04-18T06:06:00.297Z,99955.20
2023-04-18T06:08:28.389Z,99958.27
2023-04-18T06:10:56.296Z,99960.66
2023-04-18T06:13:24.118Z,99962.83
2023-04-18T06:15:52.078Z,99966.91
2023-04-18T06:18:19.930Z,99968.55
2023-04-18T06:20:47.831Z,99971.81
2023-04-18T06:23:16.125Z,99977.61
2023-04-18T06:25:44.159Z,99977.26
2023-04-18T06:28:12.050Z,99978.42
2023-04-18T06:30:39.998Z,99977.81
2023-04-18T06:33:10.556Z,99985.30
2023-04-18T06:35:38.761Z,99986.66
2023-04-18T06:38:06.750Z,99983.95
2023-04-18T06:40:34.984Z,99982.38
2023-04-18T06:43:03.019Z,99984.58
2023-04-18T06:45:31.577Z,99984.80
2023-04-18T06:47:59.896Z,99980.47
2023-04-18T06:50:27.999Z,99981.63
2023-04-18T06:52:56.103Z,99983.29
2023-04-18T06:55:30.982Z,99984.20
2023-04-18T06:58:00.675Z,99986.59
2023-04-18T07:00:28.895Z,99984.27
2023-04-18T07:02:57.142Z,99982.08
2023-04-18T07:05:25.227Z,99979.98
2023-04-18T07:07:53.358Z,99980.66
2023-04-18T07:10:21.380Z,99982.52
2023-04-18T07:12:49.242Z,99985.50
2023-04-18T07:15:17.254Z,99989.80
2023-04-18T07:17:46.194Z,99988.56
2023-04-18T07:20:14.447Z,99985.36
2023-04-18T07:22:42.763Z,99988.05
2023-04-18T07:25:11.541Z,99990.52
2023-04-18T07:27:39.559Z,99989.74
2023-04-18T07:30:08.420Z,99987.32
2023-04-18T07:32:36.551Z,99984.95
2023-04-18T07:35:05.025Z,99991.59
2023-04-18T07:37:33.078Z,99994.13
2023-04-18T07:40:01.044Z,99996.83
2023-04-18T07:42:28.979Z,99997.59
2023-04-18T07:44:59.885Z,99995.91
2023-04-18T07:47:30.454Z,99997.08
2023-04-18T07:49:59.262Z,99998.77
2023-04-18T07:52:27.288Z,99999.27
2023-04-18T07:54:55.311Z,99997.17
2023-04-18T07:57:23.273Z,99994.08
2023-04-18T07:59:53.830Z,99997.41
2023-04-18T08:02:22.029Z,99997.65
2023-04-18T08:04:52.314Z,100000.63
2023-04-18T08:07:20.436Z,99998.48
2023-04-18T08:09:48.307Z,99999.13
2023-04-18T08:12:16.196Z,100000.04
2023-04-18T08:14:44.250Z,99999.52
2023-04-18T08:17:14.391Z,100002.84
2023-04-18T08:19:42.542Z,100001.87
2023-04-18T08:22:11.214Z,100001.14
2023-04-18T08:24:39.324Z,99999.33
2023-04-18T08:27:07.528Z,99997.52
2023-04-18T08:29:35.565Z,99992.35
2023-04-18T08:32:07.491Z,99988.92
2023-04-18T08:34:38.400Z,99987.05
2023-04-18T08:37:07.395Z,99988.86
2023-04-18T08:39:35.618Z,99989.80
2023-04-18T08:42:06.657Z,99991.83
2023-04-18T08:44:34.647Z,99991.48
2023-04-18T08:47:03.152Z,99988.14
2023-04-18T08:49:31.504Z,99987.59
2023-04-18T08:52:01.442Z,99986.41
2023-04-18T08:54:30.713Z,99987.84
2023-04-18T08:57:10.142Z,99985.61
2023-04-18T08:59:40.078Z,99987.55
2023-04-18T09:02:10.221Z,99989.80
2023-04-18T09:04:45.194Z,99988.09
2023-04-18T09:07:16.295Z,99989.50
2023-04-18T09:09:46.318Z,99993.59
2023-04-18T09:12:18.484Z,99992.02
2023-04-18T09:14:47.914Z,99992.23
2023-04-18T09:17:31.742Z,99993.42
2023-04-18T09:20:01.190Z,99991.38
2023-04-18T09:22:52.983Z,99990.11
2023-04-18T09:25:35.924Z,99987.85
2023-04-18T09:28:06.473Z,99988.38
2023-04-18T09:30:42.286Z,99985.80
2023-04-18T09:33:10.421Z,99987.00
2023-04-18T09:35:41.659Z,99987.11
2023-04-18T09:38:09.931Z,99989.77
2023-04-18T09:40:38.127Z,99992.47
2023-04-18T09:43:21.496Z,99989.44
2023-04-18T09:45:49.888Z,99991.92
2023-04-18T09:48:18.102Z,99991.91
2023-04-18T09:50:47.730Z,99992.56
2023-04-18T09:53:21.047Z,99991.09
2023-04-18T09:55:55.595Z,99990.05
2023-04-18T09:58:30.814Z,99989.52
2023-04-18T10:00:59.169Z,99987.75
2023-04-18T10:03:35.073Z,99984.98
2023-04-18T10:06:03.972Z,99986.04
2023-04-18T10:08:33.257Z,99982.16
2023-04-18T10:11:01.551Z,99978.72
2023-04-18T10:13:30.379Z,99975.93
2023-04-18T10:15:58.943Z,99973.14
2023-04-18T10:18:26.825Z,99972.08
2023-04-18T10:21:04.320Z,99969.79
2023-04-18T10:23:32.479Z,99970.38
2023-04-18T10:26:01.742Z,99971.36
2023-04-18T10:28:49.577Z,99972.25
2023-04-18T10:31:17.678Z,99970.05
2023-04-18T10:34:00.696Z,99965.14
2023-04-18T10:36:33.495Z,99964.53
2023-04-18T10:39:21.032Z,99963.08
2023-04-18T10:41:50.972Z,99962.90
2023-04-18T10:44:22.846Z,99959.55
2023-04-18T10:46:51.338Z,99951.28
2023-04-18T10:49:25.156Z,99953.92
2023-04-18T10:51:58.508Z,99954.58
2023-04-18T10:54:47.587Z,99950.01
2023-04-18T10:57:15.755Z,99948.02
2023-04-18T10:59:48.346Z,99946.42
2023-04-18T11:02:30.921Z,99943.64
2023-04-18T11:05:01.736Z,99943.33
2023-04-18T11:07:46.206Z,99941.13
2023-04-18T11:10:18.914Z,99941.84
2023-04-18T11:12:47.382Z,99937.04
2023-04-18T11:15:21.429Z,99936.33
2023-04-18T11:18:03.921Z,99933.86
2023-04-18T11:20:40.023Z,99933.27
2023-04-18T11:23:23.106Z,99932.15
2023-04-18T11:25:54.120Z,99934.75
2023-04-18T11:28:25.025Z,99932.96
2023-04-18T11:30:59.159Z,99932.61
2023-04-18T11:33:29.406Z,99933.52
2023-04-18T11:36:00.986Z,99936.05
2023-04-18T11:38:32.286Z,99935.61
2023-04-18T11:41:03.050Z,99933.33
2023-04-18T11:43:31.026Z,99929.82
2023-04-18T11:46:00.016Z,99929.05
2023-04-18T11:48:42.029Z,99927.65
2023-04-18T11:51:35.685Z,99923.63
2023-04-18T11:54:04.269Z,99917.70
2023-04-18T11:56:34.624Z,99914.91
2023-04-18T11:59:10.446Z,99917.06
2023-04-18T12:01:38.468Z,99915.70
2023-04-18T12:04:08.546Z,99912.89
2023-04-18T12:06:55.495Z,99915.92
2023-04-18T12:09:25.328Z,99912.54
2023-04-18T12:12:01.628Z,99909.89
2023-04-18T12:14:30.583Z,99906.52
2023-04-18T12:17:03.543Z,99910.20
2023-04-18T12:19:31.626Z,99912.34
2023-04-18T12:22:01.328Z,99911.88
2023-04-18T12:24:30.100Z,99907.30
2023-04-18T12:26:59.165Z,99900.84
2023-04-18T12:29:28.673Z,99896.54
2023-04-18T12:31:56.992Z,99898.24
2023-04-18T12:34:25.375Z,99901.30
2023-04-18T12:36:54.107Z,99903.02
2023-04-18T12:39:22.183Z,99904.49
2023-04-18T12:41:50.145Z,99900.95
2023-04-18T12:44:18.412Z,99903.11
2023-04-18T12:46:46.472Z,99897.60
2023-04-18T12:49:14.563Z,99899.45
2023-04-18T12:51:43.676Z,99897.86
2023-04-18T12:54:11.750Z,99897.46
2023-04-18T12:56:42.286Z,99890.16
2023-04-18T12:59:10.755Z,99894.84
2023-04-18T13:01:38.752Z,99896.45
2023-04-18T13:04:12.502Z,99893.25
2023-04-18T13:06:41.510Z,99898.38
2023-04-18T13:09:10.528Z,99897.95
2023-04-18T13:11:38.484Z,99896.35
2023-04-18T13:14:06.316Z,99885.46
2023-04-18T13:16:34.252Z,99885.82
2023-04-18T13:19:02.131Z,99888.09
2023-04-18T13:21:30.050Z,99880.48
2023-04-18T13:23:58.056Z,99884.44
2023-04-18T13:26:26.474Z,99887.04
2023-04-18T13:28:54.450Z,99877.69
2023-04-18T13:31:22.430Z,99879.02
2023-04-18T13:33:50.522Z,99880.33
2023-04-18T13:36:18.876Z,99872.16
2023-04-18T13:38:47.608Z,99875.77
2023-04-18T13:41:15.741Z,99886.26
2023-04-18T13:43:43.737Z,99877.78
2023-04-18T13:46:11.901Z,99879.80
2023-04-18T13:48:39.899Z,99882.40
2023-04-18T13:51:07.896Z,99888.36
2023-04-18T13:53:35.807Z,99884.42
2023-04-18T13:56:04.130Z,99885.38
2023-04-18T13:58:32.066Z,99884.55
2023-04-18T14:01:00.963Z,99879.86
2023-04-18T14:03:33.655Z,99887.16
2023-04-18T14:06:02.822Z,99890.53
2023-04-18T14:08:30.849Z,99888.02
2023-04-18T14:10:58.768Z,99890.27
2023-04-18T14:13:27.235Z,99886.09
2023-04-18T14:15:55.301Z,99882.77
2023-04-18T14:18:24.702Z,99881.02
2023-04-18T14:20:52.638Z,99885.61
2023-04-18T14:23:22.674Z,99883.15
2023-04-18T14:25:50.786Z,99881.31
2023-04-18T14:28:21.714Z,99883.00
2023-04-18T14:30:49.709Z,99883.23
2023-04-18T14:33:18.343Z,99883.85
2023-04-18T14:35:46.217Z,99882.46
2023-04-18T14:38:14.052Z,99881.60
2023-04-18T14:40:42.368Z,99884.59
2023-04-18T14:43:10.916Z,99883.81
2023-04-18T14:45:38.795Z,99886.17
2023-04-18T14:48:08.101Z,99885.97
2023-04-18T14:50:38.690Z,99887.36
2023-04-18T14:53:07.460Z,99880.33
2023-04-18T14:55:35.554Z,99880.70
2023-04-18T14:58:03.624Z,99881.46
2023-04-18T15:00:33.289Z,99882.23
2023-04-18T15:03:01.536Z,99879.30
2023-04-18T15:05:29.686Z,99877.84
2023-04-18T15:07:58.160Z,99881.49
2023-04-18T15:10:26.242Z,99884.09
2023-04-18T15:12:54.327Z,99882.93
2023-04-18T15:15:22.880Z,99883.45
2023-04-18T15:17:50.949Z,99886.73
2023-04-18T15:20:18.964Z,99884.69
2023-04-18T15:22:46.825Z,99883.96
2023-04-18T15:25:16.680Z,99884.82
2023-04-18T15:27:44.584Z,99882.74
2023-04-18T15:30:13.427Z,99881.42
2023-04-18T15:32:44.492Z,99881.90
2023-04-18T15:35:12.940Z,99884.98
2023-04-18T15:37:41.605Z,99885.95
2023-04-18T15:40:11.494Z,99886.20
2023-04-18T15:42:39.479Z,99884.00
2023-04-18T15:45:08.140Z,99884.05
2023-04-18T15:47:36.197Z,99880.71
2023-04-18T15:50:04.818Z,99883.96
2023-04-18T15:52:32.769Z,99882.12
2023-04-18T15:55:01.083Z,99882.54
2023-04-18T15:57:29.864Z,99880.25
2023-04-18T15:59:59.633Z,99878.61
2023-04-18T16:02:27.958Z,99878.48
2023-04-18T16:04:56.151Z,99874.51
2023-04-18T16:07:24.027Z,99879.24
2023-04-18T16:09:51.910Z,99879.89
2023-04-18T16:12:19.788Z,99878.73
2023-04-18T16:14:47.759Z,99878.53
2023-04-18T16:17:15.736Z,99878.12
2023-04-18T16:19:43.912Z,99880.73
2023-04-18T16:22:12.675Z,99885.80
2023-04-18T16:24:42.192Z,99884.83
2023-04-18T16:27:10.429Z,99885.88
2023-04-18T16:29:38.359Z,99892.61
2023-04-18T16:32:06.764Z,99898.67
2023-04-18T16:34:34.725Z,99903.21
2023-04-18T16:37:02.595Z,99902.06
2023-04-18T16:39:31.066Z,99902.09
2023-04-18T16:41:58.916Z,99899.56
2023-04-18T16:44:26.879Z,99902.08
2023-04-18T16:46:54.918Z,99899.80
2023-04-18T16:49:23.827Z,99900.42
2023-04-18T16:51:52.043Z,99904.80
2023-04-18T16:54:19.955Z,99907.17
2023-04-18T16:56:48.425Z,99907.88
2023-04-18T16:59:16.471Z,99909.02
2023-04-18T17:01:44.444Z,99911.25
2023-04-18T17:04:12.743Z,99909.69
2023-04-18T17:06:42.969Z,99912.51
2023-04-18T17:09:13.588Z,99910.65
2023-04-18T17:11:41.919Z,99908.79
2023-04-18T17:14:09.802Z,99911.17
2023-04-18T17:16:39.162Z,99911.12
2023-04-18T17:19:07.692Z,99910.25
2023-04-18T17:21:37.096Z,99916.52
2023-04-18T17:24:07.008Z,99918.70
2023-04-18T17:26:37.131Z,99923.05
2023-04-18T17:29:05.014Z,99927.72
2023-04-18T17:31:32.976Z,99930.52
2023-04-18T17:34:01.064Z,99931.69
2023-04-18T17:36:29.234Z,99937.89
2023-04-18T17:39:05.375Z,99938.84
2023-04-18T17:41:38.222Z,99942.27
2023-04-18T17:44:08.276Z,99943.38
2023-04-18T17:46:36.360Z,99943.46
2023-04-18T17:49:04.901Z,99945.24
2023-04-18T17:51:38.370Z,99945.55
2023-04-18T17:54:13.514Z,99945.31
2023-04-18T17:56:41.435Z,99948.13
2023-04-18T17:59:09.938Z,99950.64
2023-04-18T18:01:37.952Z,99952.06
2023-04-18T18:04:06.392Z,99958.11
2023-04-18T18:06:34.667Z,99960.60
2023-04-18T18:09:03.174Z,99965.20
2023-04-18T18:11:31.503Z,99959.57
2023-04-18T18:14:00.622Z,99961.79
2023-04-18T18:16:28.795Z,99962.60
2023-04-18T18:18:57.087Z,99958.84
2023-04-18T18:21:26.389Z,99961.33
2023-04-18T18:23:54.411Z,99968.15
2023-04-18T18:26:22.746Z,99969.80
2023-04-18T18:28:50.623Z,99965.82
2023-04-18T18:31:22.661Z,99969.05
2023-04-18T18:33:51.797Z,99973.82
2023-04-18T18:36:19.819Z,99975.05
2023-04-18T18:38:47.814Z,99971.91
2023-04-18T18:41:15.925Z,99974.20
2023-04-18T18:43:43.827Z,99975.75
2023-04-18T18:46:11.727Z,99975.89
2023-04-18T18:48:39.719Z,99979.08
2023-04-18T18:51:07.687Z,99973.77
2023-04-18T18:53:37.690Z,99974.48
2023-04-18T18:56:08.743Z,99976.80
2023-04-18T18:58:36.801Z,99973.75
2023-04-18T19:01:05.836Z,99969.61
2023-04-18T19:03:34.901Z,99963.95
2023-04-18T19:06:04.337Z,99965.39
2023-04-18T19:08:32.475Z,99962.65
2023-04-18T19:11:00.608Z,99964.83
2023-04-18T19:13:28.654Z,99964.90
2023-04-18T19:15:58.266Z,99963.48
2023-04-18T19:18:26.637Z,99963.52
2023-04-18T19:20:54.655Z,99962.15
2023-04-18T19:23:25.221Z,99958.66
2023-04-18T19:25:55.061Z,99959.70
2023-04-18T19:28:23.371Z,99961.06
2023-04-18T19:30:51.263Z,99961.14
2023-04-18T19:33:22.934Z,99961.41
2023-04-18T19:35:51.410Z,99961.98
2023-04-18T19:38:19.485Z,99960.40
2023-04-18T19:40:47.373Z,99961.33
2023-04-18T19:43:15.295Z,99961.84
2023-04-18T19:45:43.200Z,99958.84
2023-04-18T19:48:11.891Z,99958.08
2023-04-18T19:50:40.497Z,99955.35
2023-04-18T19:53:11.270Z,99953.02
2023-04-18T19:55:39.172Z,99953.65
2023-04-18T19:58:07.200Z,99953.63
2023-04-18T20:00:55.196Z,99951.11
2023-04-18T20:03:29.519Z,99946.70
2023-04-18T20:05:57.773Z,99943.06
2023-04-18T20:08:26.185Z,99946.45
2023-04-18T20:11:10.733Z,99946.06
2023-04-18T20:13:39.092Z,99946.02
2023-04-18T20:16:08.970Z,99943.86
2023-04-18T20:18:39.787Z,99941.83
2023-04-18T20:21:08.241Z,99940.08
2023-04-18T20:23:39.561Z,99942.39
2023-04-18T20:26:07.799Z,99940.64
2023-04-18T20:28:36.457Z,99942.95
2023-04-18T20:31:07.498Z,99939.55
2023-04-18T20:33:38.981Z,99936.27
2023-04-18T20:36:08.289Z,99933.77
2023-04-18T20:38:37.020Z,99929.16
2023-04-18T20:41:05.205Z,99930.86
2023-04-18T20:43:37.262Z,99931.45
2023-04-18T20:46:07.064Z,99930.09
2023-04-18T20:48:35.217Z,99933.80
2023-04-18T20:51:03.235Z,99931.11
2023-04-18T20:53:34.007Z,99936.79
2023-04-18T20:56:03.094Z,99941.76
2023-04-18T20:58:31.071Z,99937.44
2023-04-18T21:00:58.959Z,99936.50
2023-04-18T21:03:28.966Z,99934.39
2023-04-18T21:05:57.145Z,99938.81
2023-04-18T21:08:27.750Z,99936.77
2023-04-18T21:10:55.720Z,99932.54
2023-04-18T21:13:23.880Z,99932.69
2023-04-18T21:15:52.171Z,99932.42
2023-04-18T21:18:20.252Z,99932.84
2023-04-18T21:20:48.255Z,99928.67
2023-04-18T21:23:16.163Z,99926.14
2023-04-18T21:25:44.108Z,99924.21
2023-04-18T21:28:12.576Z,99920.27
2023-04-18T21:30:40.443Z,99917.03
2023-04-18T21:33:08.473Z,99918.31
2023-04-18T21:35:36.323Z,99915.52
2023-04-18T21:38:04.426Z,99911.64
2023-04-18T21:40:33.392Z,99910.17
2023-04-18T21:43:01.196Z,99910.00
2023-04-18T21:45:29.147Z,99906.70
2023-04-18T21:47:57.254Z,99904.19
2023-04-18T21:50:25.474Z,99901.48
2023-04-18T21:52:53.412Z,99899.88
2023-04-18T21:55:21.351Z,99902.27
2023-04-18T21:57:49.240Z,99899.48
2023-04-18T22:00:17.570Z,99898.89
2023-04-18T22:02:45.750Z,99898.54
2023-04-18T22:05:13.969Z,99899.11
2023-04-18T22:07:54.413Z,99896.34
2023-04-18T22:10:22.847Z,99894.53
2023-04-18T22:12:54.156Z,99890.48
2023-04-18T22:15:22.727Z,99894.51
2023-04-18T22:17:51.254Z,99897.98
2023-04-18T22:20:19.204Z,99894.36
2023-04-18T22:22:47.325Z,99894.13
2023-04-18T22:25:17.551Z,99894.41
2023-04-18T22:27:46.495Z,99891.23
2023-04-18T22:30:14.848Z,99888.60
2023-04-18T22:32:42.863Z,99886.79
2023-04-18T22:35:10.864Z,99887.17
2023-04-18T22:37:38.979Z,99887.45
2023-04-18T22:40:08.743Z,99886.80
2023-04-18T22:42:38.570Z,99883.94
2023-04-18T22:45:07.449Z,99884.34
2023-04-18T22:47:35.481Z,99880.23
2023-04-18T22:50:03.560Z,99882.76
2023-04-18T22:52:31.491Z,99882.96
2023-04-18T22:54:59.544Z,99882.76
2023-04-18T22:57:27.608Z,99881.33
2023-04-18T22:59:56.052Z,99883.54
2023-04-18T23:02:24.635Z,99883.67
2023-04-18T23:04:53.403Z,99883.71
2023-04-18T23:07:21.374Z,99883.17
2023-04-18T23:09:49.238Z,99879.84
2023-04-18T23:12:17.228Z,99880.09
2023-04-18T23:14:45.480Z,99880.77
2023-04-18T23:17:13.492Z,99878.00
2023-04-18T23:19:41.584Z,99874.61
2023-04-18T23:22:09.539Z,99870.52
2023-04-18T23:24:39.062Z,99868.95
2023-04-18T23:27:07.019Z,99866.61
2023-04-18T23:29:39.265Z,99863.09
2023-04-18T23:32:07.312Z,99859.78
2023-04-18T23:34:35.451Z,99856.01
2023-04-18T23:37:03.402Z,99858.75
2023-04-18T23:39:31.380Z,99858.90
2023-04-18T23:41:59.326Z,99854.50
2023-04-18T23:44:27.374Z,99851.13
2023-04-18T23:46:55.740Z,99853.86
2023-04-18T23:49:23.673Z,99850.96
2023-04-18T23:51:51.635Z,99851.95
2023-04-18T23:54:19.434Z,99850.58
2023-04-18T23:56:47.243Z,99852.65
2023-04-18T23:59:15.198Z,99848.95
